Time;durP1;ratioP1;P1;durP2;ratioP2;P2;SDS_P1;SDS_P2;PMS_P1;PMS_P2;Temp;Humidity;BMP_temperature;BMP_pressure;BME280_temperature;BME280_humidity;BME280_pressure;Samples;Min_cycle;Max_cycle;Signal;HPM_P1;HPM_P2
2023/06/06 00:00:19;;;;;;;6.60;2.90;;;;;;;14.53;62.26;101103.60;107678;1257;61977;-77
2023/06/06 00:02:46;;;;;;;7.80;2.40;;;;;;;14.51;62.43;101105.54;107747;1256;60479;-77
2023/06/06 00:05:14;;;;;;;4.60;2.30;;;;;;;14.51;62.44;101104.41;107775;1256;74696;-78
2023/06/06 00:07:44;;;;;;;6.40;2.30;;;;;;;14.53;62.57;101104.23;107788;1256;72709;-78
2023/06/06 00:10:12;;;;;;;5.00;2.40;;;;;;;14.55;62.54;101106.66;107709;1256;72714;-77
2023/06/06 00:12:52;;;;;;;4.70;2.30;;;;;;;14.57;62.47;101104.13;107865;1256;61250;-80
2023/06/06 00:15:20;;;;;;;5.00;2.30;;;;;;;14.57;62.59;101105.00;107919;1256;61686;-78
2023/06/06 00:17:53;;;;;;;5.10;2.30;;;;;;;14.53;62.56;101102.80;107925;1256;75054;-79
2023/06/06 00:20:20;;;;;;;5.80;2.40;;;;;;;14.51;62.59;101104.58;107818;1257;71641;-78
2023/06/06 00:22:48;;;;;;;5.90;2.60;;;;;;;14.51;62.65;101110.20;107839;1258;71438;-78
2023/06/06 00:25:16;;;;;;;4.40;2.50;;;;;;;14.49;62.59;101108.20;107947;1256;61684;-78
2023/06/06 00:27:43;;;;;;;5.20;2.40;;;;;;;14.48;62.67;101107.77;107990;1257;61119;-78
2023/06/06 00:30:10;;;;;;;5.40;2.90;;;;;;;14.49;62.72;101110.55;108131;1256;72450;-78
2023/06/06 00:32:38;;;;;;;5.40;2.40;;;;;;;14.49;62.76;101110.98;108050;1256;72841;-79
2023/06/06 00:35:06;;;;;;;7.30;3.00;;;;;;;14.50;62.81;101109.39;108133;1256;71276;-79
2023/06/06 00:37:34;;;;;;;4.10;2.70;;;;;;;14.50;62.75;101105.73;108035;1256;62095;-79
2023/06/06 00:40:00;;;;;;;6.10;3.00;;;;;;;14.47;62.78;101105.34;108106;1256;61132;-78
2023/06/06 00:42:28;;;;;;;6.00;2.80;;;;;;;14.41;62.74;101109.70;108034;1256;74642;-79
2023/06/06 00:44:55;;;;;;;5.70;2.70;;;;;;;14.39;62.75;101107.92;108000;1256;71603;-80
2023/06/06 00:47:23;;;;;;;5.40;2.80;;;;;;;14.38;62.64;101107.98;107808;1257;72670;-78
2023/06/06 00:49:50;;;;;;;7.90;2.80;;;;;;;14.38;62.70;101108.36;107719;1256;61288;-78
2023/06/06 00:52:17;;;;;;;5.60;3.00;;;;;;;14.35;62.62;101108.41;107817;1256;61312;-78
2023/06/06 00:54:45;;;;;;;5.30;2.70;;;;;;;14.31;62.64;101109.70;107954;1256;73687;-77
2023/06/06 00:57:12;;;;;;;6.40;2.60;;;;;;;14.29;62.51;101110.29;107579;1256;72921;-78
2023/06/06 00:59:40;;;;;;;4.60;2.90;;;;;;;14.23;62.54;101109.73;107787;1256;71781;-78
2023/06/06 01:02:09;;;;;;;5.40;2.90;;;;;;;14.18;62.56;101111.84;107813;1256;61924;-77
2023/06/06 01:04:40;;;;;;;6.10;2.80;;;;;;;14.10;62.78;101111.98;107569;1256;61148;-77
2023/06/06 01:07:09;;;;;;;4.40;2.50;;;;;;;14.04;62.78;101112.35;107966;1256;74036;-77
2023/06/06 01:09:36;;;;;;;4.20;2.60;;;;;;;14.01;62.90;101116.38;107901;1256;73942;-79
2023/06/06 01:12:16;;;;;;;5.20;2.70;;;;;;;14.00;63.01;101114.66;107739;1257;71472;-78
2023/06/06 01:15:10;;;;;;;5.20;2.60;;;;;;;13.95;63.06;101110.35;107990;1257;61900;-78
2023/06/06 01:17:38;;;;;;;6.10;2.70;;;;;;;13.90;63.21;101114.36;107886;1256;61689;-78
2023/06/06 01:20:06;;;;;;;3.90;2.50;;;;;;;13.86;63.36;101118.60;107897;1256;74666;-77
2023/06/06 01:22:35;;;;;;;3.90;2.30;;;;;;;13.84;63.48;101116.66;107870;1256;72505;-77
2023/06/06 01:25:06;;;;;;;4.10;2.70;;;;;;;13.80;63.71;101118.96;107881;1257;71381;-77
2023/06/06 01:27:34;;;;;;;4.60;2.60;;;;;;;13.79;63.84;101123.53;107812;1256;62004;-79
2023/06/06 01:30:01;;;;;;;3.70;2.20;;;;;;;13.81;64.00;101129.00;107835;1256;61385;-79
2023/06/06 01:32:48;;;;;;;4.50;2.60;;;;;;;13.84;64.06;101128.48;107770;1256;74795;-78
2023/06/06 01:35:33;;;;;;;6.10;2.50;;;;;;;13.88;64.16;101124.27;107977;1256;72562;-77
2023/06/06 01:38:14;;;;;;;3.90;2.50;;;;;;;13.91;64.34;101123.61;107958;1256;70360;-78
2023/06/06 01:40:44;;;;;;;3.50;2.40;;;;;;;13.96;64.37;101122.39;107835;1257;61981;-78
2023/06/06 01:43:11;;;;;;;4.00;2.30;;;;;;;14.01;64.34;101120.58;107758;1257;61202;-78
2023/06/06 01:45:39;;;;;;;4.30;2.20;;;;;;;14.05;64.42;101122.03;107798;1257;73357;-77
2023/06/06 01:48:06;;;;;;;3.40;2.10;;;;;;;14.06;64.47;101121.17;107826;1256;72746;-77
2023/06/06 01:50:33;;;;;;;3.40;2.30;;;;;;;14.10;64.47;101121.02;107710;1256;72485;-78
2023/06/06 01:53:00;;;;;;;4.10;2.30;;;;;;;14.12;64.39;101123.39;107674;1257;62156;-77
2023/06/06 01:55:26;;;;;;;4.70;2.20;;;;;;;14.14;64.33;101121.13;107907;1257;61205;-77
2023/06/06 01:57:54;;;;;;;3.80;2.20;;;;;;;14.14;64.27;101120.52;107815;1256;74508;-77
2023/06/06 02:00:21;;;;;;;3.90;2.10;;;;;;;14.14;64.25;101124.88;107719;1262;71706;-77
2023/06/06 02:02:48;;;;;;;5.10;2.50;;;;;;;14.15;64.21;101124.23;107878;1259;72652;-77
2023/06/06 02:05:15;;;;;;;7.30;2.30;;;;;;;14.14;64.22;101125.52;107991;1256;62014;-77
2023/06/06 02:07:42;;;;;;;5.40;2.80;;;;;;;14.13;64.15;101128.65;107798;1257;61138;-77
2023/06/06 02:10:10;;;;;;;5.30;3.00;;;;;;;14.13;64.24;101128.76;107771;1256;74691;-77
2023/06/06 02:12:38;;;;;;;4.30;2.80;;;;;;;14.12;64.11;101127.31;107975;1256;72803;-77
2023/06/06 02:15:06;;;;;;;4.50;3.20;;;;;;;14.05;64.09;101135.15;107985;1256;72664;-77
2023/06/06 02:17:35;;;;;;;4.80;3.00;;;;;;;14.05;64.08;101138.42;107756;1257;63010;-77
2023/06/06 02:20:06;;;;;;;4.30;3.20;;;;;;;14.10;64.22;101137.94;107789;1256;61275;-77
2023/06/06 02:22:33;;;;;;;4.70;3.20;;;;;;;14.15;64.02;101136.44;107720;1259;74577;-77
2023/06/06 02:25:03;;;;;;;5.30;3.30;;;;;;;14.18;64.06;101132.53;107911;1256;72579;-77
2023/06/06 02:27:32;;;;;;;6.30;3.20;;;;;;;14.24;63.98;101128.66;107841;1256;73575;-77
2023/06/06 02:30:08;;;;;;;5.00;3.30;;;;;;;14.28;64.02;101127.70;107698;1256;62012;-77
2023/06/06 02:32:36;;;;;;;5.80;3.40;;;;;;;14.29;64.04;101131.79;108002;1256;61076;-79
2023/06/06 02:35:04;;;;;;;5.70;2.90;;;;;;;14.34;64.14;101131.62;107973;1256;74440;-78
2023/06/06 02:37:32;;;;;;;4.50;3.00;;;;;;;14.42;64.11;101134.76;107833;1257;72563;-78
2023/06/06 02:40:08;;;;;;;6.60;2.80;;;;;;;14.50;64.08;101128.30;107814;1256;73906;-79
2023/06/06 02:42:37;;;;;;;4.40;2.80;;;;;;;14.59;64.06;101131.13;107950;1257;61228;-80
2023/06/06 02:45:08;;;;;;;5.90;2.90;;;;;;;14.63;63.91;101129.23;107792;1256;61010;-79
2023/06/06 02:47:35;;;;;;;3.90;2.80;;;;;;;14.59;63.92;101130.09;107960;1257;74632;-80
2023/06/06 02:50:04;;;;;;;5.40;2.80;;;;;;;14.54;63.94;101131.61;107769;1256;72850;-80
2023/06/06 02:52:35;;;;;;;5.10;2.80;;;;;;;14.53;64.07;101131.27;107798;1257;71428;-80
2023/06/06 02:55:02;;;;;;;4.40;2.40;;;;;;;14.57;64.22;101135.10;107817;1257;61732;-80
2023/06/06 02:57:30;;;;;;;4.80;2.90;;;;;;;14.65;64.27;101137.80;107821;1260;61155;-80
2023/06/06 02:59:59;;;;;;;5.80;2.90;;;;;;;14.73;64.39;101139.19;108007;1256;74772;-80
2023/06/06 03:02:26;;;;;;;5.60;2.80;;;;;;;14.82;64.38;101135.63;107737;1258;71600;-80
2023/06/06 03:04:55;;;;;;;4.10;2.80;;;;;;;14.89;64.47;101130.45;107867;1257;72968;-80
2023/06/06 03:07:26;;;;;;;5.80;2.50;;;;;;;14.94;64.50;101128.41;107745;1256;62025;-80
2023/06/06 03:09:53;;;;;;;5.90;2.60;;;;;;;14.99;64.48;101129.52;107887;1256;61206;-79
2023/06/06 03:12:23;;;;;;;6.10;2.70;;;;;;;15.06;64.46;101132.03;107850;1257;74736;-80
2023/06/06 03:14:50;;;;;;;4.00;2.80;;;;;;;15.17;64.56;101127.69;107816;1257;72817;-80
2023/06/06 03:17:26;;;;;;;5.60;2.40;;;;;;;15.30;64.51;101127.83;107752;1256;72566;-80
2023/06/06 03:19:53;;;;;;;5.80;2.80;;;;;;;15.42;64.44;101129.34;107968;1256;61315;-79
2023/06/06 03:22:20;;;;;;;8.20;3.00;;;;;;;15.55;64.29;101127.34;107939;1256;61129;-80
2023/06/06 03:24:49;;;;;;;4.80;2.90;;;;;;;15.69;64.17;101130.11;107710;1257;75606;-79
2023/06/06 03:27:16;;;;;;;5.70;3.20;;;;;;;15.82;63.89;101131.49;107843;1257;72478;-79
2023/06/06 03:29:44;;;;;;;5.30;2.80;;;;;;;15.98;63.60;101131.29;107839;1256;71232;-80
2023/06/06 03:32:11;;;;;;;5.00;2.90;;;;;;;16.12;63.42;101129.43;107655;1256;61194;-80
2023/06/06 03:34:39;;;;;;;6.40;3.00;;;;;;;16.26;63.24;101129.45;107875;1257;61142;-79
2023/06/06 03:37:06;;;;;;;6.60;3.20;;;;;;;16.40;62.99;101130.15;107837;1256;73564;-80
2023/06/06 03:39:34;;;;;;;4.90;3.30;;;;;;;16.50;62.89;101129.46;107832;1256;72635;-80
2023/06/06 03:42:01;;;;;;;6.60;3.30;;;;;;;16.60;62.91;101125.66;107861;1257;72385;-80
2023/06/06 03:44:29;;;;;;;4.80;3.00;;;;;;;16.70;62.72;101128.98;107815;1260;61830;-80
2023/06/06 03:46:55;;;;;;;5.80;3.60;;;;;;;16.79;62.53;101128.61;107826;1258;61206;-81
2023/06/06 03:49:22;;;;;;;8.50;3.30;;;;;;;16.89;62.19;101129.20;107758;1256;72422;-80
2023/06/06 03:51:49;;;;;;;6.80;3.90;;;;;;;17.00;62.11;101129.73;107947;1256;72588;-80
2023/06/06 03:54:16;;;;;;;6.20;3.90;;;;;;;17.11;61.78;101129.67;107851;1256;72446;-79
2023/06/06 03:56:43;;;;;;;5.50;3.20;;;;;;;17.24;61.51;101127.80;107810;1257;62034;-79
2023/06/06 03:59:12;;;;;;;5.40;3.30;;;;;;;17.38;61.45;101125.97;107643;1258;61134;-80
2023/06/06 04:01:40;;;;;;;6.00;3.40;;;;;;;17.52;61.12;101125.24;107672;1256;74373;-78
2023/06/06 04:04:11;;;;;;;7.00;3.40;;;;;;;17.65;60.96;101125.67;107827;1256;74735;-79
2023/06/06 04:06:38;;;;;;;6.00;3.10;;;;;;;17.81;60.83;101126.58;107904;1261;73664;-80
2023/06/06 04:09:08;;;;;;;5.60;3.20;;;;;;;17.95;60.66;101127.19;107768;1257;61256;-79
2023/06/06 04:11:35;;;;;;;5.60;3.20;;;;;;;18.07;60.42;101127.61;107668;1259;61196;-80
2023/06/06 04:14:03;;;;;;;6.50;3.40;;;;;;;18.19;59.99;101130.56;107826;1256;74762;-79
2023/06/06 04:16:31;;;;;;;5.30;3.10;;;;;;;18.30;59.49;101125.52;107958;1256;72529;-79
2023/06/06 04:18:58;;;;;;;5.10;3.40;;;;;;;18.40;58.91;101123.70;107954;1256;71767;-80
2023/06/06 04:21:25;;;;;;;6.80;3.60;;;;;;;18.51;58.25;101119.79;107779;1256;61995;-80
2023/06/06 04:23:53;;;;;;;5.40;2.90;;;;;;;18.64;57.54;101119.55;107906;1256;61253;-79
2023/06/06 04:26:23;;;;;;;5.70;3.40;;;;;;;18.77;56.64;101120.77;107732;1258;74398;-80
2023/06/06 04:28:53;;;;;;;6.10;3.30;;;;;;;18.90;55.51;101119.55;107793;1258;71249;-80
2023/06/06 04:31:21;;;;;;;7.60;3.70;;;;;;;19.05;54.59;101117.28;107909;1257;72685;-80
2023/06/06 04:33:53;;;;;;;6.50;3.50;;;;;;;19.17;53.83;101116.22;107818;1256;61109;-79
2023/06/06 04:36:24;;;;;;;7.40;3.80;;;;;;;19.27;53.48;101115.69;107870;1256;61199;-80
2023/06/06 04:38:52;;;;;;;6.80;3.40;;;;;;;19.35;52.87;101112.12;107728;1256;74693;-81
2023/06/06 04:41:22;;;;;;;5.40;3.40;;;;;;;19.49;52.53;101114.55;107889;1257;71291;-81
2023/06/06 04:44:10;;;;;;;5.50;3.10;;;;;;;19.68;52.51;101111.14;107872;1258;71753;-81
2023/06/06 04:46:37;;;;;;;7.20;3.40;;;;;;;19.85;51.14;101113.91;107716;1256;61259;-79
2023/06/06 04:49:04;;;;;;;5.90;3.00;;;;;;;20.00;49.89;101112.91;107868;1256;60270;-80
2023/06/06 04:51:33;;;;;;;8.60;3.30;;;;;;;20.12;49.25;101115.56;107868;1259;74492;-79
2023/06/06 04:54:01;;;;;;;5.40;2.90;;;;;;;20.23;48.55;101119.15;107800;1256;71120;-79
2023/06/06 04:56:29;;;;;;;5.30;2.90;;;;;;;20.34;47.40;101118.02;107692;1258;72532;-77
2023/06/06 04:58:57;;;;;;;6.50;3.30;;;;;;;20.47;46.89;101118.52;107816;1256;61238;-78
2023/06/06 05:01:24;;;;;;;4.80;2.70;;;;;;;20.64;46.44;101118.61;107895;1256;61101;-77
2023/06/06 05:03:51;;;;;;;5.90;2.70;;;;;;;20.75;45.21;101116.58;107608;1256;74427;-78
2023/06/06 05:06:18;;;;;;;5.50;2.70;;;;;;;20.82;44.04;101114.59;107804;1256;72702;-78
2023/06/06 05:08:45;;;;;;;5.10;3.00;;;;;;;20.82;43.17;101115.83;107894;1257;71259;-78
2023/06/06 05:11:12;;;;;;;4.90;2.70;;;;;;;20.83;43.35;101115.48;107933;1256;61243;-78
2023/06/06 05:13:40;;;;;;;7.40;2.70;;;;;;;20.90;44.12;101116.29;107799;1258;61160;-78
2023/06/06 05:16:07;;;;;;;7.70;2.70;;;;;;;21.02;43.65;101115.25;107801;1259;74674;-79
2023/06/06 05:18:36;;;;;;;5.10;2.90;;;;;;;21.13;42.71;101116.95;107806;1259;72779;-79
2023/06/06 05:21:04;;;;;;;4.00;2.50;;;;;;;21.21;42.17;101107.45;107809;1257;72477;-77
2023/06/06 05:23:31;;;;;;;4.40;2.80;;;;;;;21.29;42.14;101112.38;107765;1258;61228;-78
2023/06/06 05:25:58;;;;;;;5.20;2.90;;;;;;;21.40;42.22;101112.50;107763;1258;61263;-78
2023/06/06 05:28:28;;;;;;;4.90;2.60;;;;;;;21.52;41.77;101111.36;107783;1257;74647;-78
2023/06/06 05:30:58;;;;;;;5.30;2.80;;;;;;;21.66;41.49;101110.83;107748;1258;72713;-78
2023/06/06 05:33:30;;;;;;;6.20;2.90;;;;;;;21.72;41.54;101115.29;107780;1257;72420;-78
2023/06/06 05:35:57;;;;;;;4.70;2.60;;;;;;;21.71;40.86;101115.34;107748;1259;61136;-78
2023/06/06 05:38:25;;;;;;;4.30;2.80;;;;;;;21.72;41.02;101113.77;107756;1259;61341;-79
2023/06/06 05:40:52;;;;;;;5.00;2.90;;;;;;;21.80;41.10;101112.96;107772;1257;74741;-79
2023/06/06 05:43:19;;;;;;;6.40;2.80;;;;;;;21.93;40.93;101109.41;107778;1257;72934;-79
2023/06/06 05:45:46;;;;;;;6.90;3.00;;;;;;;22.05;40.79;101108.93;107774;1258;72761;-78
2023/06/06 05:48:13;;;;;;;6.00;2.90;;;;;;;22.16;40.63;101109.02;107773;1258;61123;-78
2023/06/06 05:50:40;;;;;;;8.10;4.00;;;;;;;22.29;40.55;101110.52;107770;1259;61270;-78
2023/06/06 05:53:07;;;;;;;8.00;3.40;;;;;;;22.40;40.52;101108.95;107784;1258;73233;-78
2023/06/06 05:55:35;;;;;;;8.20;3.00;;;;;;;22.50;40.40;101109.00;108030;1257;71373;-78
2023/06/06 05:58:03;;;;;;;5.30;3.10;;;;;;;22.60;39.87;101111.20;107800;1259;71745;-78
2023/06/06 06:00:31;;;;;;;5.00;2.60;;;;;;;22.68;39.44;101111.45;107731;1258;61132;-78
2023/06/06 06:03:01;;;;;;;6.50;2.60;;;;;;;22.76;39.10;101113.09;107906;1256;60577;-79
2023/06/06 06:05:29;;;;;;;7.40;2.50;;;;;;;22.81;38.53;101107.69;107941;1256;74579;-78
2023/06/06 06:08:01;;;;;;;4.30;2.50;;;;;;;22.89;38.61;101111.70;107954;1257;72633;-78
2023/06/06 06:10:30;;;;;;;5.80;2.70;;;;;;;22.97;38.48;101111.17;107923;1259;71491;-78
2023/06/06 06:12:58;;;;;;;6.00;2.50;;;;;;;23.04;38.81;101113.49;107758;1258;61261;-78
2023/06/06 06:15:24;;;;;;;4.70;2.70;;;;;;;23.15;38.65;101112.38;107733;1258;60388;-78
2023/06/06 06:17:51;;;;;;;4.30;2.70;;;;;;;23.24;38.27;101109.38;107686;1256;74464;-78
2023/06/06 06:20:19;;;;;;;6.70;2.50;;;;;;;23.29;38.43;101111.64;107878;1260;71772;-79
2023/06/06 06:22:47;;;;;;;4.50;2.40;;;;;;;23.35;37.81;101108.80;107728;1259;72751;-79
2023/06/06 06:25:14;;;;;;;5.60;2.50;;;;;;;23.38;37.84;101106.13;107716;1258;61260;-79
2023/06/06 06:27:42;;;;;;;5.40;2.70;;;;;;;23.47;37.86;101103.54;107758;1258;61180;-79
2023/06/06 06:30:09;;;;;;;4.80;2.80;;;;;;;23.57;38.21;101104.20;107695;1259;74779;-79
2023/06/06 06:32:37;;;;;;;4.10;2.40;;;;;;;23.68;38.06;101104.08;107774;1259;71551;-79
2023/06/06 06:35:08;;;;;;;4.40;2.60;;;;;;;23.79;37.67;101102.89;107749;1258;72507;-79
2023/06/06 06:37:37;;;;;;;5.00;2.50;;;;;;;23.86;37.60;101103.48;107767;1256;61132;-79
2023/06/06 06:40:10;;;;;;;6.50;2.50;;;;;;;23.97;37.38;101104.09;107704;1256;60021;-78
2023/06/06 06:42:44;;;;;;;4.80;2.20;;;;;;;24.10;36.89;101104.64;107819;1260;74709;-79
2023/06/06 06:45:23;;;;;;;5.30;2.40;;;;;;;24.20;36.11;101103.66;107602;1259;71406;-79
2023/06/06 06:47:50;;;;;;;4.20;2.10;;;;;;;24.28;35.98;101103.32;107877;1256;72746;-79
2023/06/06 06:50:18;;;;;;;4.50;2.50;;;;;;;24.40;35.11;101103.60;107761;1256;61259;-78
2023/06/06 06:52:45;;;;;;;5.60;2.30;;;;;;;24.55;34.73;101101.86;107945;1256;61353;-79
2023/06/06 06:55:12;;;;;;;4.00;1.90;;;;;;;24.68;34.43;101097.55;107897;1257;73165;-79
2023/06/06 06:57:41;;;;;;;4.80;2.30;;;;;;;24.80;33.41;101096.38;107771;1259;72647;-78
2023/06/06 07:00:13;;;;;;;3.60;2.20;;;;;;;24.91;33.86;101098.08;107786;1256;71142;-78
2023/06/06 07:02:44;;;;;;;4.60;2.10;;;;;;;25.03;33.06;101095.88;107695;1262;61103;-78
2023/06/06 07:05:11;;;;;;;3.30;2.00;;;;;;;25.11;32.94;101097.32;107768;1256;61134;-77
2023/06/06 07:07:46;;;;;;;5.10;2.00;;;;;;;25.22;32.64;101096.19;107771;1256;74702;-78
2023/06/06 07:10:15;;;;;;;4.20;2.10;;;;;;;25.33;32.04;101096.67;107942;1257;71753;-78
2023/06/06 07:12:46;;;;;;;4.70;2.30;;;;;;;25.40;31.78;101095.48;107901;1256;72660;-79
2023/06/06 07:15:13;;;;;;;4.50;2.00;;;;;;;25.50;32.40;101100.94;107909;1257;61177;-78
2023/06/06 07:17:42;;;;;;;5.00;2.20;;;;;;;25.62;32.25;101099.50;107712;1260;61317;-79
2023/06/06 07:20:11;;;;;;;7.10;2.00;;;;;;;25.71;31.95;101101.66;107729;1259;74449;-78
2023/06/06 07:22:38;;;;;;;4.30;1.90;;;;;;;25.82;31.59;101106.98;107813;1258;72537;-78
2023/06/06 07:25:05;;;;;;;4.10;1.90;;;;;;;25.92;30.29;101105.19;107779;1258;72707;-77
2023/06/06 07:27:35;;;;;;;23.70;5.90;;;;;;;25.97;30.59;101102.88;107795;1260;61119;-78
2023/06/06 07:30:03;;;;;;;9.80;2.40;;;;;;;26.01;30.29;101100.34;107624;1257;214600;-78
2023/06/06 07:32:30;;;;;;;6.80;2.50;;;;;;;26.10;30.11;101097.77;107829;1259;74572;-79
2023/06/06 07:34:57;;;;;;;68.30;11.40;;;;;;;26.19;29.88;101094.73;107927;1257;72728;-79
2023/06/06 07:37:24;;;;;;;11.30;3.40;;;;;;;26.29;29.69;101092.17;107880;1257;73994;-79
2023/06/06 07:39:51;;;;;;;9.40;2.80;;;;;;;26.41;29.49;101091.55;107909;1257;59789;-79
2023/06/06 07:42:20;;;;;;;7.00;2.10;;;;;;;26.55;28.46;101088.19;107958;1260;61145;-79
2023/06/06 07:44:51;;;;;;;4.10;1.70;;;;;;;26.63;27.56;101088.39;107848;1258;73439;-81
2023/06/06 07:47:18;;;;;;;20.60;4.00;;;;;;;26.63;27.30;101085.90;107766;1259;71408;-77
2023/06/06 07:49:45;;;;;;;8.60;2.70;;;;;;;26.69;26.23;101086.89;107773;1260;73172;-78
2023/06/06 07:52:12;;;;;;;4.50;1.90;;;;;;;26.72;25.67;101087.52;107957;1259;61033;-79
2023/06/06 07:54:40;;;;;;;49.20;7.10;;;;;;;26.76;26.21;101083.94;107949;1256;61144;-78
2023/06/06 07:57:08;;;;;;;5.60;1.60;;;;;;;26.88;26.02;101083.21;107973;1257;74635;-79
2023/06/06 07:59:36;;;;;;;3.90;2.00;;;;;;;27.04;25.43;101084.06;107825;1257;72109;-77
2023/06/06 08:02:03;;;;;;;3.70;1.60;;;;;;;27.20;25.08;101081.39;107898;1257;72980;-78
2023/06/06 08:04:30;;;;;;;5.20;1.80;;;;;;;27.36;25.31;101078.70;107804;1257;61223;-79
2023/06/06 08:06:57;;;;;;;6.10;1.80;;;;;;;27.54;25.61;101084.56;107848;1257;61039;-78
2023/06/06 08:09:25;;;;;;;5.40;1.50;;;;;;;27.70;26.44;101079.50;107857;1258;74437;-78
2023/06/06 08:11:52;;;;;;;5.10;1.70;;;;;;;27.86;25.99;101075.05;107721;1262;72740;-80
2023/06/06 08:14:19;;;;;;;4.10;1.70;;;;;;;28.03;24.60;101073.58;107718;1257;72843;-79
2023/06/06 08:16:45;;;;;;;6.00;1.90;;;;;;;28.17;24.16;101076.20;107722;1258;61223;-78
2023/06/06 08:19:13;;;;;;;2.80;1.60;;;;;;;28.26;23.37;101076.30;107727;1260;61125;-78
2023/06/06 08:21:39;;;;;;;3.20;1.70;;;;;;;28.28;23.03;101076.09;107715;1259;73227;-81
2023/06/06 08:24:06;;;;;;;4.60;1.80;;;;;;;28.36;22.63;101074.34;107776;1258;73075;-79
2023/06/06 08:26:34;;;;;;;3.10;1.90;;;;;;;28.47;22.79;101071.35;107750;1257;72686;-79
2023/06/06 08:29:01;;;;;;;3.30;1.60;;;;;;;28.59;22.39;101069.58;107770;1258;61244;-79
2023/06/06 08:31:29;;;;;;;4.30;1.80;;;;;;;28.63;22.09;101067.60;107882;1258;61334;-80
2023/06/06 08:33:57;;;;;;;5.20;1.80;;;;;;;28.67;21.61;101067.91;107834;1258;74632;-79
2023/06/06 08:36:25;;;;;;;3.50;1.80;;;;;;;28.62;20.86;101066.02;107804;1257;73184;-79
2023/06/06 08:38:52;;;;;;;4.80;1.70;;;;;;;28.64;21.05;101062.37;107821;1260;71226;-80
2023/06/06 08:41:19;;;;;;;5.20;1.90;;;;;;;28.77;21.20;101062.81;107944;1256;60501;-80
2023/06/06 08:43:46;;;;;;;5.10;2.10;;;;;;;28.90;21.26;101059.09;107719;1258;61155;-78
2023/06/06 08:46:15;;;;;;;3.20;1.70;;;;;;;28.98;20.69;101059.54;107728;1258;74430;-79
2023/06/06 08:48:43;;;;;;;3.50;2.00;;;;;;;28.99;19.94;101054.45;107706;1259;72622;-82
2023/06/06 08:51:12;;;;;;;3.80;1.80;;;;;;;29.00;20.51;101055.46;107627;1257;72708;-78
2023/06/06 08:53:39;;;;;;;3.40;1.90;;;;;;;29.06;20.30;101051.80;107918;1257;61171;-79
2023/06/06 08:56:07;;;;;;;2.60;1.60;;;;;;;29.12;20.49;101047.56;107810;1262;61234;-78
2023/06/06 08:58:34;;;;;;;4.10;2.10;;;;;;;29.25;20.61;101048.77;107770;1257;74752;-79
2023/06/06 09:01:01;;;;;;;4.10;2.00;;;;;;;29.31;20.60;101047.75;107703;1262;71828;-78
2023/06/06 09:03:31;;;;;;;4.10;1.90;;;;;;;29.35;20.29;101045.44;107993;1257;72673;-78
2023/06/06 09:06:02;;;;;;;4.50;2.10;;;;;;;29.46;20.56;101044.73;107980;1257;60425;-78
2023/06/06 09:08:29;;;;;;;4.40;1.90;;;;;;;29.50;20.09;101043.20;107666;1257;61211;-79
2023/06/06 09:10:56;;;;;;;4.60;2.20;;;;;;;29.38;19.78;101045.34;108046;1257;74661;-79
2023/06/06 09:13:23;;;;;;;3.30;2.00;;;;;;;29.16;19.59;101045.59;107992;1257;71305;-78
2023/06/06 09:15:50;;;;;;;5.80;2.50;;;;;;;28.95;20.35;101049.04;107797;1257;72785;-79
2023/06/06 09:18:17;;;;;;;4.10;2.10;;;;;;;28.90;20.89;101040.63;108002;1257;61225;-79
2023/06/06 09:20:47;;;;;;;3.20;1.70;;;;;;;29.00;20.54;101041.17;107682;1256;61199;-78
2023/06/06 09:23:15;;;;;;;3.70;1.90;;;;;;;29.13;20.91;101039.33;107658;1257;74564;-80
2023/06/06 09:25:44;;;;;;;3.10;1.60;;;;;;;29.30;21.01;101039.25;107992;1256;72838;-80
2023/06/06 09:28:11;;;;;;;4.30;2.00;;;;;;;29.48;21.16;101034.92;107995;1257;64156;-80
2023/06/06 09:30:37;;;;;;;2.80;1.80;;;;;;;29.70;20.76;101032.85;107959;1260;61717;-80
2023/06/06 09:33:05;;;;;;;3.60;2.00;;;;;;;29.82;20.37;101030.55;107932;1258;61180;-79
2023/06/06 09:35:36;;;;;;;4.90;1.80;;;;;;;29.86;20.24;101032.08;107800;1257;73726;-80
2023/06/06 09:38:17;;;;;;;3.30;1.80;;;;;;;29.85;20.43;101029.15;107828;1262;63985;-78
2023/06/06 09:40:47;;;;;;;3.20;1.70;;;;;;;29.91;20.75;101028.59;107886;1261;63864;-78
2023/06/06 09:43:15;;;;;;;6.10;1.80;;;;;;;29.94;20.77;101028.77;107879;1257;61329;-79
2023/06/06 09:45:49;;;;;;;3.90;1.80;;;;;;;29.93;20.52;101023.02;107926;1257;61242;-78
2023/06/06 09:48:25;;;;;;;3.40;1.80;;;;;;;30.06;20.89;101018.20;107999;1262;64738;-78
2023/06/06 09:50:52;;;;;;;5.70;2.10;;;;;;;30.22;20.92;101020.18;107998;1256;64016;-79
2023/06/06 09:53:28;;;;;;;3.90;1.80;;;;;;;30.41;20.63;101014.12;107936;1257;64172;-80
2023/06/06 09:56:13;;;;;;;2.60;1.40;;;;;;;30.61;20.02;101011.52;107927;1258;61263;-79
2023/06/06 09:58:41;;;;;;;4.60;1.90;;;;;;;30.74;20.07;101010.76;107714;1258;61257;-79
2023/06/06 10:01:09;;;;;;;2.90;1.90;;;;;;;30.81;19.60;101012.33;107789;1262;65825;-81
2023/06/06 10:03:37;;;;;;;7.00;2.10;;;;;;;30.85;19.44;101012.35;107694;1257;64157;-80
2023/06/06 10:06:06;;;;;;;3.20;2.20;;;;;;;30.81;19.13;101011.21;107675;1257;62554;-79
2023/06/06 10:08:33;;;;;;;4.10;2.10;;;;;;;30.76;18.96;101015.89;107698;1257;61282;-79
2023/06/06 10:11:00;;;;;;;4.30;1.80;;;;;;;30.75;19.05;101011.54;107721;1257;61138;-79
2023/06/06 10:13:27;;;;;;;4.00;2.00;;;;;;;30.64;19.37;101005.63;107594;1257;65760;-78
2023/06/06 10:15:56;;;;;;;4.40;1.90;;;;;;;30.43;19.44;101004.92;107708;1262;72619;-78
2023/06/06 10:18:22;;;;;;;4.10;1.90;;;;;;;30.39;19.91;101005.61;107692;1262;72659;-78
2023/06/06 10:20:49;;;;;;;3.90;2.20;;;;;;;30.46;20.36;101009.29;107797;1257;61244;-78
2023/06/06 10:23:16;;;;;;;3.80;1.90;;;;;;;30.54;19.72;101011.32;107706;1259;61264;-79
2023/06/06 10:25:44;;;;;;;7.20;2.30;;;;;;;30.46;19.40;101008.65;107809;1261;66171;-77
2023/06/06 10:28:18;;;;;;;5.90;2.20;;;;;;;30.25;19.97;101009.58;107781;1257;72601;-79
2023/06/06 10:31:02;;;;;;;4.90;2.20;;;;;;;30.14;20.43;101011.11;107733;1257;72598;-78
2023/06/06 10:33:45;;;;;;;3.40;2.00;;;;;;;30.11;20.07;101011.48;107845;1257;61157;-80
2023/06/06 10:36:15;;;;;;;3.80;1.80;;;;;;;30.06;19.36;101007.03;107869;1257;61045;-78
2023/06/06 10:39:20;;;;;;;2.60;1.90;;;;;;;29.98;19.84;101004.73;107788;1257;65017;-78
2023/06/06 10:41:59;;;;;;;5.50;1.90;;;;;;;29.92;19.94;101006.81;107837;1257;64159;-80
2023/06/06 10:44:35;;;;;;;2.80;1.90;;;;;;;29.98;20.51;101006.30;107808;1257;72705;-78
2023/06/06 10:47:21;;;;;;;5.80;1.80;;;;;;;29.93;20.43;101009.41;107774;1257;61256;-78
2023/06/06 10:50:18;;;;;;;3.20;1.70;;;;;;;29.69;20.62;101006.55;107889;1258;61166;-79
2023/06/06 10:52:50;;;;;;;4.20;2.00;;;;;;;29.44;20.67;101004.74;107731;1261;65000;-79
2023/06/06 10:55:38;;;;;;;2.60;1.80;;;;;;;29.29;20.67;101003.93;107873;1257;63822;-79
2023/06/06 10:58:09;;;;;;;3.70;1.90;;;;;;;29.24;20.62;101007.17;107727;1257;72996;-78
2023/06/06 11:00:45;;;;;;;4.90;2.00;;;;;;;29.24;20.67;101002.91;107804;1257;61120;-78
2023/06/06 11:03:15;;;;;;;3.90;1.90;;;;;;;29.43;21.37;101004.11;107878;1257;61157;-79
2023/06/06 11:06:16;;;;;;;4.70;1.80;;;;;;;29.69;21.19;101003.66;107964;1257;65837;-78
2023/06/06 11:08:56;;;;;;;3.70;2.00;;;;;;;29.88;20.22;101003.39;107664;1257;64110;-78
2023/06/06 11:11:25;;;;;;;3.30;1.90;;;;;;;29.93;20.25;101001.07;107777;1258;63904;-78
2023/06/06 11:13:58;;;;;;;4.30;2.40;;;;;;;30.04;20.27;101001.02;107818;1257;60446;-79
2023/06/06 11:16:38;;;;;;;4.50;1.80;;;;;;;30.20;20.00;100998.20;107677;1257;61144;-78
2023/06/06 11:19:14;;;;;;;4.60;1.90;;;;;;;30.26;19.76;100992.81;107779;1257;66122;-78
2023/06/06 11:21:42;;;;;;;8.60;2.20;;;;;;;30.37;20.53;100993.39;107799;1257;64120;-78
2023/06/06 11:24:10;;;;;;;3.00;1.90;;;;;;;30.56;19.74;100992.36;107934;1258;63901;-78
2023/06/06 11:26:38;;;;;;;4.10;1.90;;;;;;;30.55;19.23;100989.59;107786;1257;61119;-78